Time;durP1;ratioP1;P1;durP2;ratioP2;P2;SDS_P1;SDS_P2;PMS_P1;PMS_P2;Temp;Humidity;BMP_temperature;BMP_pressure;BME280_temperature;BME280_humidity;BME280_pressure;Samples;Min_cycle;Max_cycle;Signal;HPM_P1;HPM_P2
2021/04/02 00:00:43;;;;;;;26.48;9.95;;;;;;;13.37;53.56;101584.25;344097;28;1086;-69
2021/04/02 00:00:59;;;;;;;25.55;10.05;;;;;;;13.24;53.35;101588.34;340250;28;71279;-69
2021/04/02 00:01:10;;;;;;;26.20;9.80;;;;;;;13.31;54.13;101589.81;340599;28;71555;-66
2021/04/02 00:01:22;;;;;;;26.58;9.98;;;;;;;13.25;53.94;101595.38;345433;28;1097;-67
2021/04/02 00:01:33;;;;;;;25.30;9.57;;;;;;;13.22;54.19;101590.22;345363;28;1118;-67
2021/04/02 00:01:44;;;;;;;25.63;9.50;;;;;;;13.28;53.95;101586.44;344554;28;1135;-68
2021/04/02 00:01:55;;;;;;;28.77;9.90;;;;;;;13.34;54.33;101591.44;346074;28;1073;-68
2021/04/02 00:02:09;;;;;;;29.55;10.15;;;;;;;13.23;53.84;101594.63;348070;28;1306;-70
2021/04/02 00:02:20;;;;;;;27.13;10.02;;;;;;;13.20;53.94;101584.13;347426;28;22941;-69
2021/04/02 00:02:31;;;;;;;25.84;9.80;;;;;;;13.23;54.20;101589.31;348086;28;1046;-68
2021/04/02 00:02:43;;;;;;;25.00;10.07;;;;;;;13.18;54.39;101586.84;346674;28;1245;-69
2021/04/02 00:02:54;;;;;;;24.92;10.05;;;;;;;13.18;54.07;101586.00;346825;28;1073;-68
2021/04/02 00:03:21;;;;;;;27.42;9.85;;;;;;;13.17;54.56;101584.25;346709;28;1458;-69
2021/04/02 00:03:38;;;;;;;26.95;10.25;;;;;;;13.16;53.47;101580.75;344260;28;70445;-69
2021/04/02 00:04:06;;;;;;;27.10;10.48;;;;;;;13.08;53.54;101582.88;347004;28;34245;-69
2021/04/02 00:04:18;;;;;;;29.23;10.82;;;;;;;13.18;53.61;101583.34;349034;28;1156;-69
2021/04/02 00:04:29;;;;;;;28.45;10.30;;;;;;;13.22;54.65;101591.06;349456;28;1246;-68
2021/04/02 00:04:40;;;;;;;28.52;10.60;;;;;;;13.26;53.29;101588.28;348969;28;1074;-69
2021/04/02 00:05:18;;;;;;;28.13;10.50;;;;;;;13.28;54.56;101581.97;348611;28;33218;-69
2021/04/02 00:05:29;;;;;;;26.95;10.65;;;;;;;13.34;53.73;101587.03;346177;28;94991;-69
2021/04/02 00:05:40;;;;;;;30.95;10.82;;;;;;;13.40;53.09;101588.56;348157;28;1085;-68
2021/04/02 00:05:53;;;;;;;33.47;11.10;;;;;;;13.39;53.82;101590.38;348178;28;1207;-69
2021/04/02 00:06:07;;;;;;;33.67;10.90;;;;;;;13.33;53.52;101587.09;348107;28;1053;-68
2021/04/02 00:06:18;;;;;;;27.48;10.25;;;;;;;13.15;53.90;101586.97;346493;28;48981;-69
2021/04/02 00:06:29;;;;;;;23.48;9.45;;;;;;;13.04;53.58;101584.81;348129;28;1225;-67
2021/04/02 00:06:40;;;;;;;25.70;9.73;;;;;;;13.15;54.18;101588.78;349326;28;1080;-69
2021/04/02 00:06:51;;;;;;;28.02;10.18;;;;;;;13.23;53.21;101594.63;349521;28;1042;-69
2021/04/02 00:07:07;;;;;;;30.20;10.40;;;;;;;13.20;53.35;101594.72;349565;28;1133;-66
2021/04/02 00:07:19;;;;;;;29.70;10.13;;;;;;;13.10;53.70;101593.44;348138;28;70017;-70
2021/04/02 00:07:30;;;;;;;29.10;9.98;;;;;;;13.02;54.23;101591.97;349552;28;1878;-70
2021/04/02 00:07:42;;;;;;;25.63;9.27;;;;;;;12.94;53.65;101596.75;349619;28;1069;-70
2021/04/02 00:07:53;;;;;;;26.05;9.50;;;;;;;12.94;54.65;101595.88;349591;28;1337;-69
2021/04/02 00:08:05;;;;;;;25.52;9.55;;;;;;;12.98;54.78;101595.69;349610;28;1156;-70
2021/04/02 00:08:16;;;;;;;26.17;10.10;;;;;;;13.02;54.22;101593.75;349447;28;1160;-70
2021/04/02 00:08:27;;;;;;;27.02;10.32;;;;;;;13.13;53.68;101583.53;349565;28;1236;-70
2021/04/02 00:08:39;;;;;;;29.75;10.50;;;;;;;13.18;53.06;101592.16;349521;28;1105;-70
2021/04/02 00:08:50;;;;;;;28.63;10.48;;;;;;;13.13;53.30;101587.97;349479;28;977;-70
2021/04/02 00:09:02;;;;;;;26.98;10.40;;;;;;;12.97;54.59;101586.00;348207;28;1251;-70
2021/04/02 00:09:13;;;;;;;25.67;10.10;;;;;;;12.83;54.53;101575.13;348124;28;1053;-71
2021/04/02 00:09:24;;;;;;;28.65;10.18;;;;;;;12.97;53.58;101596.63;348165;28;1056;-71
2021/04/02 00:09:35;;;;;;;31.42;10.45;;;;;;;13.06;54.41;101582.06;348154;28;1136;-70
2021/04/02 00:09:46;;;;;;;31.33;10.68;;;;;;;13.05;54.41;101589.19;346764;28;1069;-69
2021/04/02 00:09:58;;;;;;;28.63;10.45;;;;;;;13.11;53.66;101587.19;346812;28;2147;-70
2021/04/02 00:10:12;;;;;;;26.85;10.68;;;;;;;13.15;54.01;101581.69;346847;28;1106;-68
2021/04/02 00:10:34;;;;;;;30.92;11.15;;;;;;;13.20;53.83;101584.13;345816;28;71052;-68
2021/04/02 00:10:54;;;;;;;29.83;10.70;;;;;;;13.07;54.04;101579.34;345796;28;70935;-70
2021/04/02 00:11:08;;;;;;;29.13;10.82;;;;;;;13.13;53.99;101583.53;347017;28;71999;-70
2021/04/02 00:11:19;;;;;;;29.23;10.45;;;;;;;13.21;54.38;101581.38;348727;28;24016;-69
2021/04/02 00:11:30;;;;;;;29.90;10.18;;;;;;;13.25;54.02;101582.13;349455;28;1340;-68
2021/04/02 00:11:41;;;;;;;29.42;9.98;;;;;;;13.23;52.95;101584.84;349532;28;1122;-69
2021/04/02 00:11:52;;;;;;;29.33;10.15;;;;;;;13.19;53.32;101585.91;349591;28;1097;-68
2021/04/02 00:12:04;;;;;;;28.88;10.18;;;;;;;12.98;53.65;101576.25;349475;28;1077;-69
2021/04/02 00:12:15;;;;;;;26.88;10.13;;;;;;;12.93;53.70;101587.06;349517;28;1065;-69
2021/04/02 00:12:27;;;;;;;26.23;10.38;;;;;;;12.91;54.31;101583.59;349573;28;1188;-69
2021/04/02 00:12:38;;;;;;;28.70;10.45;;;;;;;12.96;54.29;101588.72;349511;28;1087;-69
2021/04/02 00:12:49;;;;;;;31.13;10.52;;;;;;;13.00;53.20;101587.66;349476;28;1129;-67
2021/04/02 00:13:00;;;;;;;29.10;9.77;;;;;;;12.84;54.73;101582.16;349501;28;1165;-69
2021/04/02 00:13:14;;;;;;;28.75;9.75;;;;;;;12.84;54.09;101588.31;349460;28;1406;-68
2021/04/02 00:13:31;;;;;;;27.90;9.68;;;;;;;12.79;54.51;101590.31;348698;28;25298;-70
2021/04/02 00:13:44;;;;;;;27.80;9.43;;;;;;;12.93;53.71;101586.19;347074;28;71955;-70
2021/04/02 00:13:55;;;;;;;29.17;9.95;;;;;;;12.86;54.34;101596.22;349403;28;1175;-71
2021/04/02 00:14:10;;;;;;;30.13;10.43;;;;;;;12.83;54.82;101591.03;349689;28;1073;-71
2021/04/02 00:14:21;;;;;;;30.52;10.30;;;;;;;12.90;53.87;101588.06;348923;28;22712;-70
2021/04/02 00:14:32;;;;;;;32.22;10.40;;;;;;;12.96;53.52;101584.28;349606;28;1177;-69
2021/04/02 00:14:43;;;;;;;32.67;10.80;;;;;;;13.03;53.65;101588.38;349532;28;1237;-68
2021/04/02 00:14:54;;;;;;;33.45;11.07;;;;;;;13.06;54.31;101582.97;349632;28;1295;-70
2021/04/02 00:15:12;;;;;;;33.42;11.10;;;;;;;12.94;53.98;101590.56;349479;28;1607;-69
2021/04/02 00:15:23;;;;;;;30.05;9.60;;;;;;;12.93;54.12;101592.38;346976;28;70505;-69
2021/04/02 00:15:35;;;;;;;24.40;8.82;;;;;;;12.81;54.20;101582.31;349411;28;1799;-67
2021/04/02 00:15:47;;;;;;;23.85;9.18;;;;;;;12.88;53.19;101589.91;349519;28;1081;-70
2021/04/02 00:15:59;;;;;;;23.88;9.38;;;;;;;12.79;53.46;101589.44;349473;28;1138;-70
2021/04/02 00:16:12;;;;;;;26.15;9.82;;;;;;;12.81;53.98;101582.31;349568;28;2089;-71
2021/04/02 00:16:23;;;;;;;28.67;10.18;;;;;;;12.70;53.92;101582.75;349540;28;1053;-70
2021/04/02 00:16:35;;;;;;;26.65;10.05;;;;;;;12.62;54.59;101590.16;348093;28;1101;-70
2021/04/02 00:16:46;;;;;;;28.36;10.44;;;;;;;12.73;54.33;101595.88;348156;28;1118;-69
2021/04/02 00:16:57;;;;;;;28.05;10.23;;;;;;;12.83;54.55;101583.06;348102;28;1200;-68
2021/04/02 00:17:08;;;;;;;29.08;10.20;;;;;;;12.84;54.18;101587.47;349506;28;1077;-70
2021/04/02 00:17:19;;;;;;;25.95;9.88;;;;;;;12.90;54.94;101589.88;348068;28;2935;-70
2021/04/02 00:17:30;;;;;;;25.52;9.88;;;;;;;12.99;54.65;101589.44;347990;28;1164;-71
2021/04/02 00:17:42;;;;;;;24.45;9.50;;;;;;;12.95;54.57;101585.19;348113;28;1049;-71
2021/04/02 00:17:54;;;;;;;26.58;9.93;;;;;;;12.89;53.20;101590.78;348175;28;1050;-71
2021/04/02 00:18:06;;;;;;;28.90;10.25;;;;;;;12.89;53.28;101586.31;348160;28;1172;-70
2021/04/02 00:18:17;;;;;;;26.38;9.95;;;;;;;12.88;54.00;101589.91;346765;28;1026;-71
2021/04/02 00:18:29;;;;;;;26.35;9.77;;;;;;;12.88;54.34;101583.75;347036;28;1119;-70
2021/04/02 00:18:40;;;;;;;26.60;10.35;;;;;;;12.90;53.48;101587.22;348130;28;1139;-69
2021/04/02 00:18:51;;;;;;;24.77;10.32;;;;;;;12.89;54.66;101581.03;346754;28;1134;-70
2021/04/02 00:19:03;;;;;;;22.50;10.20;;;;;;;12.90;53.69;101581.91;345385;28;1141;-70
2021/04/02 00:19:15;;;;;;;23.17;9.75;;;;;;;12.86;53.63;101586.47;344544;28;1062;-70
2021/04/02 00:19:26;;;;;;;23.15;9.40;;;;;;;12.72;53.71;101584.41;345296;28;1338;-70
2021/04/02 00:19:37;;;;;;;23.63;9.27;;;;;;;12.64;54.93;101586.53;345349;28;1078;-68
2021/04/02 00:19:48;;;;;;;25.77;9.50;;;;;;;12.61;55.13;101585.78;345428;28;1201;-69
2021/04/02 00:19:59;;;;;;;27.85;10.10;;;;;;;12.63;54.68;101579.50;345343;28;1540;-70
2021/04/02 00:20:14;;;;;;;26.65;10.27;;;;;;;12.74;53.81;101584.34;345521;28;1058;-71
2021/04/02 00:20:25;;;;;;;26.25;10.48;;;;;;;12.84;54.43;101583.00;345092;28;49555;-68
2021/04/02 00:20:59;;;;;;;27.08;10.52;;;;;;;13.09;54.39;101578.44;347041;28;34159;-68
2021/04/02 00:21:12;;;;;;;26.80;10.55;;;;;;;13.15;54.10;101584.34;347123;28;71906;-70
2021/04/02 00:21:23;;;;;;;26.52;10.77;;;;;;;13.16;53.44;101580.75;349513;28;1110;-70
2021/04/02 00:21:34;;;;;;;27.20;10.55;;;;;;;13.12;52.91;101580.94;349620;28;1084;-70
2021/04/02 00:21:45;;;;;;;26.83;10.05;;;;;;;12.93;53.64;101587.06;349666;28;1069;-70
2021/04/02 00:21:56;;;;;;;28.48;9.93;;;;;;;12.88;53.10;101583.75;349680;28;1089;-70
2021/04/02 00:22:08;;;;;;;30.02;10.27;;;;;;;12.83;53.19;101589.25;349572;28;1105;-70
2021/04/02 00:22:37;;;;;;;29.92;9.90;;;;;;;12.95;53.59;101585.19;348562;28;33189;-70
2021/04/02 00:22:48;;;;;;;30.48;9.73;;;;;;;12.83;53.25;101581.31;349615;28;1212;-71
2021/04/02 00:22:59;;;;;;;28.70;9.93;;;;;;;12.93;52.97;101583.53;349605;28;1125;-71
2021/04/02 00:23:11;;;;;;;26.88;10.05;;;;;;;12.92;53.23;101574.72;349436;28;1264;-70
2021/04/02 00:23:24;;;;;;;25.25;9.45;;;;;;;12.77;53.60;101586.00;349578;28;1127;-68
2021/04/02 00:23:36;;;;;;;23.90;9.15;;;;;;;12.83;54.33;101585.72;349647;28;1064;-69
2021/04/02 00:23:47;;;;;;;23.80;9.65;;;;;;;12.94;53.61;101578.19;349618;28;1074;-70
2021/04/02 00:23:59;;;;;;;27.20;10.05;;;;;;;13.04;53.71;101581.31;349554;28;1929;-71
2021/04/02 00:24:10;;;;;;;29.00;10.40;;;;;;;13.06;54.20;101575.00;349587;28;1183;-70
2021/04/02 00:24:21;;;;;;;28.23;10.40;;;;;;;12.97;52.70;101582.47;349629;28;1041;-69
2021/04/02 00:24:32;;;;;;;24.65;10.23;;;;;;;12.94;52.66;101586.16;349503;28;1134;-71
2021/04/02 00:24:43;;;;;;;24.13;10.00;;;;;;;12.80;53.69;101580.56;349529;28;1967;-70
2021/04/02 00:24:54;;;;;;;26.73;9.60;;;;;;;12.81;53.71;101582.31;349587;28;1077;-71
2021/04/02 00:25:06;;;;;;;27.45;9.45;;;;;;;12.74;53.52;101571.09;349456;28;1113;-72
2021/04/02 00:25:17;;;;;;;25.77;9.48;;;;;;;12.75;54.65;101579.91;349473;28;1093;-70
2021/04/02 00:25:28;;;;;;;24.90;9.93;;;;;;;12.83;54.86;101580.44;349495;28;1054;-70
2021/04/02 00:25:39;;;;;;;25.25;10.27;;;;;;;12.87;53.08;101580.25;348465;28;1772;-71
2021/04/02 00:25:51;;;;;;;23.50;10.15;;;;;;;12.93;53.87;101579.13;347888;28;1771;-67
2021/04/02 00:26:06;;;;;;;26.05;9.70;;;;;;;12.97;53.67;101571.88;346573;28;1750;-71
2021/04/02 00:26:20;;;;;;;31.58;9.90;;;;;;;13.05;52.74;101577.69;345128;28;49377;-71
2021/04/02 00:26:31;;;;;;;29.45;9.77;;;;;;;13.06;53.37;101577.66;344587;28;24261;-71
2021/04/02 00:26:43;;;;;;;28.73;9.98;;;;;;;13.04;52.73;101581.31;345418;28;1154;-70
2021/04/02 00:26:55;;;;;;;29.55;10.20;;;;;;;13.06;52.93;101575.00;345177;28;1587;-71
2021/04/02 00:27:07;;;;;;;31.20;10.05;;;;;;;13.06;52.57;101576.78;346722;28;1295;-70
2021/04/02 00:27:18;;;;;;;29.70;10.27;;;;;;;13.11;52.80;101571.28;346763;28;1124;-70
2021/04/02 00:27:29;;;;;;;28.23;10.25;;;;;;;13.16;52.95;101572.81;346711;28;1057;-66
2021/04/02 00:27:41;;;;;;;26.15;10.38;;;;;;;13.15;52.69;101584.34;347494;28;1650;-65
2021/04/02 00:27:52;;;;;;;26.10;9.95;;;;;;;13.07;52.72;101571.41;350294;28;1143;-64
2021/04/02 00:28:04;;;;;;;25.25;10.13;;;;;;;13.05;53.73;101570.63;350857;28;1125;-64
2021/04/02 00:28:16;;;;;;;25.83;10.13;;;;;;;13.14;53.14;101576.44;350906;28;1070;-63
2021/04/02 00:28:28;;;;;;;26.73;10.35;;;;;;;13.17;52.33;101571.00;350947;28;1089;-64
2021/04/02 00:28:40;;;;;;;26.45;10.48;;;;;;;13.15;52.75;101572.88;350967;28;1168;-64
2021/04/02 00:28:53;;;;;;;28.50;10.85;;;;;;;13.05;53.13;101575.94;351013;28;1136;-64
2021/04/02 00:29:04;;;;;;;27.50;10.63;;;;;;;13.12;53.89;101580.94;351034;28;1143;-64
2021/04/02 00:29:15;;;;;;;27.58;10.27;;;;;;;13.20;53.80;101574.38;351023;28;1119;-65
2021/04/02 00:29:26;;;;;;;27.75;10.55;;;;;;;13.26;53.26;101580.31;350950;28;1137;-65
2021/04/02 00:29:38;;;;;;;28.08;10.57;;;;;;;13.28;53.34;101574.03;350897;28;1072;-64
2021/04/02 00:29:49;;;;;;;31.30;10.70;;;;;;;13.32;52.53;101567.66;350950;28;1224;-64
2021/04/02 00:30:00;;;;;;;30.73;10.40;;;;;;;13.29;53.00;101566.94;351037;28;1064;-64
2021/04/02 00:30:17;;;;;;;28.45;10.00;;;;;;;13.24;52.38;101575.09;350964;28;1165;-64
2021/04/02 00:30:44;;;;;;;26.63;10.30;;;;;;;13.16;52.42;101572.81;348315;28;71459;-64
2021/04/02 00:30:57;;;;;;;26.83;10.10;;;;;;;13.20;52.14;101576.16;347091;28;71690;-64
2021/04/02 00:31:08;;;;;;;24.08;9.57;;;;;;;13.13;52.88;101575.56;349433;28;1091;-65
2021/04/02 00:31:20;;;;;;;23.38;9.43;;;;;;;13.10;53.08;101567.75;349521;28;1138;-65
2021/04/02 00:31:31;;;;;;;24.70;9.32;;;;;;;12.98;52.28;101578.91;349345;28;1209;-64
2021/04/02 00:31:43;;;;;;;25.65;9.98;;;;;;;13.04;52.72;101578.66;349442;28;1171;-64
2021/04/02 00:31:54;;;;;;;27.67;10.68;;;;;;;13.09;52.89;101573.13;349516;28;1137;-65
2021/04/02 00:32:05;;;;;;;25.75;10.13;;;;;;;13.15;53.71;101576.38;348478;28;1053;-64
2021/04/02 00:32:16;;;;;;;26.52;9.80;;;;;;;13.21;53.29;101575.22;349531;28;1092;-64
2021/04/02 00:32:27;;;;;;;24.85;9.50;;;;;;;13.09;53.01;101573.13;349401;28;1108;-64
2021/04/02 00:32:39;;;;;;;26.60;9.40;;;;;;;12.94;53.67;101578.19;349493;28;1088;-64
2021/04/02 00:32:52;;;;;;;28.05;9.25;;;;;;;12.96;52.37;101581.63;348745;28;23462;-65
2021/04/02 00:33:05;;;;;;;28.35;9.40;;;;;;;12.99;52.74;101575.34;349537;28;1168;-65
2021/04/02 00:33:19;;;;;;;27.50;10.05;;;;;;;13.07;52.69;101574.06;349465;28;1080;-64
2021/04/02 00:33:32;;;;;;;26.05;10.10;;;;;;;13.03;52.12;101572.47;349375;28;1171;-64
2021/04/02 00:33:43;;;;;;;22.85;9.45;;;;;;;13.04;53.22;101576.84;349489;28;1013;-64
2021/04/02 00:33:54;;;;;;;23.67;9.13;;;;;;;13.09;52.26;101570.47;349535;28;1073;-64
2021/04/02 00:34:07;;;;;;;26.20;9.77;;;;;;;13.13;52.41;101575.56;349512;28;2006;-64
2021/04/02 00:34:18;;;;;;;29.42;10.50;;;;;;;13.09;51.96;101581.94;349525;28;1168;-64
2021/04/02 00:34:29;;;;;;;28.98;10.26;;;;;;;13.09;52.51;101576.63;349560;28;1161;-64
2021/04/02 00:34:40;;;;;;;26.02;9.80;;;;;;;13.10;52.63;101572.22;349636;28;1048;-64
2021/04/02 00:34:52;;;;;;;25.27;9.50;;;;;;;12.88;52.89;101581.09;349532;28;1045;-64
2021/04/02 00:35:04;;;;;;;26.85;9.70;;;;;;;12.86;53.47;101578.50;349539;28;1081;-64
2021/04/02 00:35:15;;;;;;;26.80;10.00;;;;;;;12.90;52.31;101584.56;348048;28;1033;-64
2021/04/02 00:35:27;;;;;;;27.00;10.50;;;;;;;12.86;53.57;101575.88;348134;28;1034;-64
2021/04/02 00:35:39;;;;;;;27.50;10.57;;;;;;;12.90;52.42;101569.50;348055;28;1098;-64
2021/04/02 00:35:50;;;;;;;30.27;10.52;;;;;;;12.89;52.58;101580.19;348146;28;1025;-63
2021/04/02 00:36:02;;;;;;;29.77;10.48;;;;;;;12.90;52.87;101582.75;348149;28;1797;-64
2021/04/02 00:36:13;;;;;;;28.70;10.40;;;;;;;13.01;53.54;101587.59;347993;28;1093;-64
2021/04/02 00:36:24;;;;;;;26.10;10.13;;;;;;;12.86;52.13;101580.31;348804;28;1743;-64
2021/04/02 00:36:36;;;;;;;24.48;9.75;;;;;;;12.68;52.55;101577.53;349466;28;1216;-64
2021/04/02 00:36:47;;;;;;;25.42;9.70;;;;;;;12.67;52.86;101580.25;350026;28;1118;-64
2021/04/02 00:36:58;;;;;;;26.67;10.05;;;;;;;12.69;53.54;101581.91;350875;28;1224;-64
2021/04/02 00:37:09;;;;;;;30.55;10.55;;;;;;;12.76;52.66;101579.81;349335;28;1159;-64
2021/04/02 00:37:20;;;;;;;32.50;10.63;;;;;;;12.81;53.71;101583.16;349507;28;1127;-63
2021/04/02 00:37:31;;;;;;;32.25;10.55;;;;;;;12.89;53.81;101586.31;348502;28;1270;-64
2021/04/02 00:37:42;;;;;;;29.88;9.88;;;;;;;12.91;53.29;101588.91;349357;28;1208;-64
2021/04/02 00:37:53;;;;;;;28.63;9.75;;;;;;;12.96;53.79;101586.06;349523;28;1135;-65
2021/04/02 00:38:06;;;;;;;28.02;10.04;;;;;;;13.03;52.36;101579.56;348015;28;1197;-64
2021/04/02 00:38:17;;;;;;;27.70;10.07;;;;;;;13.06;52.51;101580.31;348091;28;955;-64
2021/04/02 00:38:29;;;;;;;27.80;10.30;;;;;;;13.13;52.79;101585.31;348116;28;1138;-63
2021/04/02 00:38:41;;;;;;;27.88;10.55;;;;;;;13.12;52.85;101578.28;348053;28;1122;-64
2021/04/02 00:38:52;;;;;;;29.23;10.73;;;;;;;13.15;53.29;101579.03;348130;28;1097;-64
2021/04/02 00:39:04;;;;;;;28.30;10.30;;;;;;;13.16;51.95;101583.41;348338;28;1094;-64
2021/04/02 00:39:15;;;;;;;25.52;10.00;;;;;;;13.16;51.91;101580.75;349395;28;2959;-64
2021/04/02 00:39:26;;;;;;;26.90;10.27;;;;;;;13.16;53.12;101579.88;349533;28;1160;-64
2021/04/02 00:39:37;;;;;;;29.02;10.30;;;;;;;13.19;52.48;101577.13;349468;28;1077;-64
2021/04/02 00:39:49;;;;;;;30.60;10.54;;;;;;;13.20;52.77;101578.81;349391;28;1217;-64
2021/04/02 00:40:00;;;;;;;29.95;10.60;;;;;;;13.19;52.77;101585.06;349395;28;1169;-64
2021/04/02 00:40:19;;;;;;;29.50;10.65;;;;;;;13.24;51.58;101583.03;349585;28;988;-64
2021/04/02 00:40:36;;;;;;;31.35;10.65;;;;;;;13.13;52.15;101582.66;347140;28;70729;-64
2021/04/02 00:40:59;;;;;;;29.85;10.27;;;;;;;13.10;51.89;101577.50;347043;28;70893;-64
2021/04/02 00:41:16;;;;;;;26.08;10.25;;;;;;;13.07;52.97;101579.34;347139;28;70024;-64
2021/04/02 00:41:28;;;;;;;25.65;9.95;;;;;;;13.01;52.46;101590.25;349439;28;1093;-64
2021/04/02 00:41:39;;;;;;;24.35;10.07;;;;;;;13.07;52.93;101581.16;349426;28;1125;-64
2021/04/02 00:41:50;;;;;;;24.15;10.05;;;;;;;13.09;52.88;101581.09;349364;28;1259;-64
2021/04/02 00:42:02;;;;;;;25.00;10.27;;;;;;;13.10;51.78;101580.16;349463;28;1208;-64
2021/04/02 00:42:13;;;;;;;25.15;10.05;;;;;;;13.11;52.88;101576.59;349425;28;1100;-64
2021/04/02 00:42:25;;;;;;;26.67;10.43;;;;;;;13.08;52.42;101577.59;349524;28;1057;-64
2021/04/02 00:42:37;;;;;;;26.13;10.30;;;;;;;13.12;51.92;101573.88;349502;28;1096;-64
2021/04/02 00:42:48;;;;;;;25.70;10.07;;;;;;;13.17;52.53;101581.59;349195;28;1191;-64
2021/04/02 00:43:00;;;;;;;28.52;10.48;;;;;;;13.16;52.97;101577.22;349482;28;1153;-63
2021/04/02 00:43:13;;;;;;;31.65;10.55;;;;;;;13.07;51.54;101578.50;349461;28;1158;-64
2021/04/02 00:43:32;;;;;;;30.80;10.25;;;;;;;12.89;52.88;101586.31;349426;28;1285;-64
2021/04/02 00:43:47;;;;;;;26.15;9.73;;;;;;;12.88;51.85;101586.41;346884;28;71695;-64
2021/04/02 00:43:58;;;;;;;25.85;10.10;;;;;;;12.65;52.20;101580.31;346518;28;47944;-66
2021/04/02 00:44:09;;;;;;;27.75;10.30;;;;;;;12.60;52.68;101579.63;348155;28;1074;-63
2021/04/02 00:44:20;;;;;;;28.30;10.02;;;;;;;12.67;52.28;101581.09;348033;28;1906;-64
2021/04/02 00:44:31;;;;;;;27.25;9.75;;;;;;;12.71;53.40;101590.63;348139;28;1026;-65
2021/04/02 00:44:43;;;;;;;26.00;9.77;;;;;;;12.75;53.49;101583.44;348505;28;1074;-63
2021/04/02 00:44:54;;;;;;;25.02;9.98;;;;;;;12.80;52.28;101580.56;349496;28;1166;-63
2021/04/02 00:45:06;;;;;;;27.50;10.07;;;;;;;12.83;52.73;101586.59;349500;28;1155;-65
2021/04/02 00:45:20;;;;;;;28.15;10.15;;;;;;;12.90;52.40;101590.72;349488;28;1041;-63
2021/04/02 00:45:31;;;;;;;25.17;9.60;;;;;;;12.78;52.21;101585.09;347221;28;22702;-63
2021/04/02 00:45:43;;;;;;;24.40;9.50;;;;;;;12.59;53.38;101585.84;348018;28;1133;-64
2021/04/02 00:45:54;;;;;;;23.83;9.52;;;;;;;12.67;52.59;101583.75;347279;28;1066;-63
2021/04/02 00:46:07;;;;;;;24.58;9.98;;;;;;;12.72;53.68;101580.88;348110;28;1077;-64
2021/04/02 00:46:22;;;;;;;27.45;10.07;;;;;;;12.83;52.68;101583.06;348069;28;1442;-64
2021/04/02 00:46:33;;;;;;;28.58;9.95;;;;;;;12.77;53.18;101586.00;344915;28;49024;-64
2021/04/02 00:46:44;;;;;;;27.00;9.75;;;;;;;12.70;52.09;101588.06;346720;28;1172;-63
2021/04/02 00:47:13;;;;;;;22.00;9.45;;;;;;;12.67;53.71;101586.41;345668;28;33345;-64
2021/04/02 00:47:24;;;;;;;24.65;9.27;;;;;;;12.56;53.02;101588.66;347029;28;1077;-64
2021/04/02 00:47:35;;;;;;;26.92;9.40;;;;;;;12.52;52.73;101587.03;348329;28;1767;-64
2021/04/02 00:47:48;;;;;;;26.92;9.30;;;;;;;12.62;52.93;101588.38;348415;28;1816;-64
2021/04/02 00:47:59;;;;;;;25.90;9.77;;;;;;;12.62;53.31;101585.72;348147;28;1046;-64
2021/04/02 00:48:11;;;;;;;22.90;9.68;;;;;;;12.60;52.35;101587.59;348093;28;1278;-66
2021/04/02 00:48:22;;;;;;;23.77;9.88;;;;;;;12.71;52.85;101584.50;348005;28;1073;-64
2021/04/02 00:48:34;;;;;;;24.80;9.95;;;;;;;12.77;53.32;101580.72;349318;28;1078;-63
2021/04/02 00:48:47;;;;;;;28.38;10.85;;;;;;;12.75;52.98;101579.91;349422;28;1168;-64
2021/04/02 00:48:59;;;;;;;25.27;10.30;;;;;;;12.61;52.65;101584.03;349470;28;1049;-65
2021/04/02 00:49:10;;;;;;;24.33;9.57;;;;;;;12.47;53.67;101583.72;349462;28;1146;-65
2021/04/02 00:49:21;;;;;;;23.30;9.05;;;;;;;12.52;53.59;101581.75;349196;28;1246;-64
2021/04/02 00:49:32;;;;;;;24.95;9.65;;;;;;;12.52;53.58;101585.25;349470;28;1081;-64
2021/04/02 00:49:43;;;;;;;24.52;10.00;;;;;;;12.55;52.62;101581.63;349488;28;1094;-63
2021/04/02 00:49:54;;;;;;;25.67;10.10;;;;;;;12.64;52.52;101585.66;349489;28;1084;-64
2021/04/02 00:50:25;;;;;;;25.90;9.95;;;;;;;12.58;52.91;101586.78;349549;28;1208;-64
2021/04/02 00:51:15;;;;;;;24.52;10.27;;;;;;;12.67;53.23;101585.53;347019;28;71469;-64
2021/04/02 00:51:29;;;;;;;27.98;10.57;;;;;;;12.72;52.56;101579.13;341546;28;72397;-64
2021/04/02 00:51:40;;;;;;;27.30;10.70;;;;;;;12.76;53.48;101577.19;343099;28;25111;-66
2021/04/02 00:51:51;;;;;;;26.83;10.50;;;;;;;12.80;51.97;101580.56;342568;28;1148;-63
2021/04/02 00:52:02;;;;;;;28.30;10.23;;;;;;;12.80;53.40;101586.72;342553;28;1119;-64
2021/04/02 00:52:31;;;;;;;26.08;9.73;;;;;;;12.73;52.81;101583.50;341549;28;34318;-64
2021/04/02 00:52:42;;;;;;;25.35;9.75;;;;;;;12.69;52.80;101571.31;342633;28;1123;-64
2021/04/02 00:52:54;;;;;;;26.33;9.75;;;;;;;12.67;52.13;101580.25;342567;28;1035;-64
2021/04/02 00:53:06;;;;;;;26.65;10.07;;;;;;;12.70;52.93;101578.31;342495;28;1067;-64
2021/04/02 00:53:20;;;;;;;26.84;10.30;;;;;;;12.68;53.19;101582.81;342415;28;1062;-64
2021/04/02 00:53:33;;;;;;;28.73;10.48;;;;;;;12.71;53.16;101576.53;342595;28;1082;-64
2021/04/02 00:53:45;;;;;;;29.92;10.25;;;;;;;12.82;52.57;101579.56;342806;28;1086;-64
2021/04/02 00:53:57;;;;;;;26.52;9.70;;;;;;;12.87;51.99;101582.03;343876;28;1086;-64
2021/04/02 00:54:08;;;;;;;25.77;10.15;;;;;;;12.80;52.74;101576.13;343924;28;1118;-64
2021/04/02 00:54:19;;;;;;;26.20;10.50;;;;;;;12.79;52.60;101576.19;343898;28;1139;-64
2021/04/02 00:54:30;;;;;;;23.73;10.10;;;;;;;12.78;53.30;101575.34;343938;28;1217;-64
2021/04/02 00:54:43;;;;;;;21.63;10.10;;;;;;;12.90;52.91;101577.47;343955;28;1422;-64
2021/04/02 00:54:54;;;;;;;23.08;10.50;;;;;;;12.90;52.61;101582.75;343879;28;1089;-64
2021/04/02 00:55:06;;;;;;;24.52;10.15;;;;;;;12.94;51.88;101578.19;343924;28;1090;-64
2021/04/02 00:55:17;;;;;;;23.38;9.93;;;;;;;12.94;52.67;101578.19;343897;28;1222;-63
2021/04/02 00:55:29;;;;;;;22.98;9.93;;;;;;;12.92;52.27;101580.03;344000;28;1192;-64
2021/04/02 00:55:41;;;;;;;23.67;9.77;;;;;;;12.90;52.71;101581.91;343953;28;1221;-64
2021/04/02 00:55:53;;;;;;;25.92;9.95;;;;;;;12.86;51.57;101578.50;343752;28;1131;-63
2021/04/02 00:56:06;;;;;;;28.38;10.18;;;;;;;12.80;52.61;101576.13;342616;28;1137;-64
2021/04/02 00:56:18;;;;;;;31.05;10.23;;;;;;;12.62;51.98;101577.75;342559;28;1294;-63
2021/04/02 00:56:30;;;;;;;31.63;10.23;;;;;;;12.55;53.08;101581.63;342609;28;1062;-64
2021/04/02 00:56:41;;;;;;;29.45;10.07;;;;;;;12.59;53.25;101577.06;342541;28;1230;-64
2021/04/02 00:56:52;;;;;;;28.10;10.27;;;;;;;12.65;53.20;101577.66;342549;28;1075;-64
2021/04/02 00:57:04;;;;;;;26.15;9.88;;;;;;;12.73;52.69;101574.66;343244;28;1747;-64
2021/04/02 00:57:15;;;;;;;26.17;9.65;;;;;;;12.67;53.09;101582.91;343556;28;1612;-64
2021/04/02 00:57:26;;;;;;;24.02;9.32;;;;;;;12.63;53.03;101579.50;342656;28;1843;-63
2021/04/02 00:57:37;;;;;;;22.92;9.50;;;;;;;12.66;52.34;101584.66;342570;28;1074;-64
2021/04/02 00:57:49;;;;;;;21.92;9.32;;;;;;;12.58;53.26;101576.16;342519;28;1188;-64
2021/04/02 00:58:00;;;;;;;23.48;9.63;;;;;;;12.64;53.34;101580.34;343147;28;1094;-63
2021/04/02 00:58:14;;;;;;;23.52;9.57;;;;;;;12.62;52.76;101583.06;343977;28;2052;-64
2021/04/02 00:58:32;;;;;;;26.74;10.56;;;;;;;12.62;52.67;101583.06;342883;28;26108;-63
2021/04/02 00:58:44;;;;;;;26.70;10.70;;;;;;;12.69;52.21;101586.31;341516;28;70898;-63
2021/04/02 00:59:13;;;;;;;24.80;9.88;;;;;;;12.58;51.75;101586.78;342868;28;33176;-63
2021/04/02 00:59:24;;;;;;;25.48;10.07;;;;;;;12.62;53.43;101584.88;343935;28;1130;-65
2021/04/02 00:59:35;;;;;;;25.77;9.80;;;;;;;12.51;53.02;101587.97;343887;28;1137;-64
2021/04/02 00:59:46;;;;;;;25.45;9.98;;;;;;;12.43;52.50;101590.06;343920;28;1287;-63
2021/04/02 00:59:57;;;;;;;24.42;9.98;;;;;;;12.52;53.22;101584.41;343924;28;1142;-64
2021/04/02 01:00:09;;;;;;;25.45;10.18;;;;;;;12.58;52.28;101581.47;343938;28;1162;-64